createdAt,value
2023-03-14T00:00:48.150Z,-0.60
2023-03-14T00:02:56.339Z,-0.60
2023-03-14T00:04:58.401Z,-0.60
2023-03-14T00:07:00.449Z,-0.70
2023-03-14T00:09:02.221Z,-0.80
2023-03-14T00:11:18.864Z,-0.80
2023-03-14T00:13:20.707Z,-0.80
2023-03-14T00:15:22.551Z,-0.80
2023-03-14T00:17:24.461Z,-0.80
2023-03-14T00:19:26.213Z,-0.80
2023-03-14T00:21:28.303Z,-0.70
2023-03-14T00:23:31.608Z,-0.70
2023-03-14T00:25:33.910Z,-0.70
2023-03-14T00:27:36.232Z,-0.80
2023-03-14T00:29:38.069Z,-0.80
2023-03-14T00:31:40.708Z,-0.80
2023-03-14T00:33:43.954Z,-0.80
2023-03-14T00:35:57.476Z,-0.80
2023-03-14T00:37:59.373Z,-0.80
2023-03-14T00:40:01.300Z,-0.90
2023-03-14T00:42:03.225Z,-0.90
2023-03-14T00:44:05.271Z,-0.90
2023-03-14T00:46:07.625Z,-0.90
2023-03-14T00:48:09.498Z,-0.90
2023-03-14T00:50:11.946Z,-0.80
2023-03-14T00:52:13.791Z,-0.90
2023-03-14T00:54:15.714Z,-0.90
2023-03-14T00:56:17.487Z,-1.00
2023-03-14T00:58:19.859Z,-1.00
2023-03-14T01:00:21.873Z,-1.00
2023-03-14T01:02:23.745Z,-1.00
2023-03-14T01:04:25.645Z,-0.90
2023-03-14T01:06:28.106Z,-0.90
2023-03-14T01:08:29.828Z,-0.90
2023-03-14T01:10:31.863Z,-1.00
2023-03-14T01:12:33.766Z,-0.90
2023-03-14T01:14:36.449Z,-0.90
2023-03-14T01:16:38.392Z,-0.80
2023-03-14T01:18:40.914Z,-0.90
2023-03-14T01:20:42.740Z,-0.90
2023-03-14T01:22:44.982Z,-1.00
2023-03-14T01:24:46.850Z,-0.90
2023-03-14T01:26:48.718Z,-0.90
2023-03-14T01:28:52.126Z,-0.90
2023-03-14T01:30:53.963Z,-1.00
2023-03-14T01:32:55.899Z,-0.90
2023-03-14T01:34:57.683Z,-0.90
2023-03-14T01:36:59.522Z,-1.00
2023-03-14T01:39:02.709Z,-0.90
2023-03-14T01:41:05.522Z,-1.00
2023-03-14T01:43:16.610Z,-1.00
2023-03-14T01:45:56.124Z,-1.10
2023-03-14T01:47:57.966Z,-1.20
2023-03-14T01:50:07.645Z,-1.20
2023-03-14T01:52:17.566Z,-1.10
2023-03-14T01:54:31.532Z,-1.10
2023-03-14T01:56:33.905Z,-1.10
2023-03-14T01:58:36.403Z,-1.00
2023-03-14T02:00:38.261Z,-1.00
2023-03-14T02:02:48.258Z,-1.00
2023-03-14T02:04:50.600Z,-1.00
2023-03-14T02:07:20.824Z,-1.00
2023-03-14T02:09:23.258Z,-1.00
2023-03-14T02:11:29.371Z,-1.00
2023-03-14T02:13:31.238Z,-1.00
2023-03-14T02:15:34.002Z,-1.00
2023-03-14T02:17:37.016Z,-1.00
2023-03-14T02:19:50.586Z,-1.00
2023-03-14T02:22:05.903Z,-1.00
2023-03-14T02:24:38.743Z,-1.00
2023-03-14T02:27:04.858Z,-1.00
2023-03-14T02:29:07.138Z,-1.00
2023-03-14T02:31:10.012Z,-0.90
2023-03-14T02:33:16.204Z,-1.00
2023-03-14T02:35:59.628Z,-0.90
2023-03-14T02:38:20.313Z,-1.00
2023-03-14T02:40:22.523Z,-0.90
2023-03-14T02:42:24.470Z,-1.00
2023-03-14T02:44:26.233Z,-0.90
2023-03-14T02:46:28.609Z,-0.90
2023-03-14T02:49:03.868Z,-0.90
2023-03-14T02:51:06.071Z,-0.90
2023-03-14T02:53:08.032Z,-0.90
2023-03-14T02:55:11.033Z,-0.90
2023-03-14T02:57:12.934Z,-0.90
2023-03-14T02:59:14.688Z,-0.90
2023-03-14T03:01:16.609Z,-0.90
2023-03-14T03:03:18.856Z,-0.90
2023-03-14T03:05:20.701Z,-1.00
2023-03-14T03:07:22.728Z,-0.90
2023-03-14T03:09:24.512Z,-0.90
2023-03-14T03:11:26.350Z,-0.90
2023-03-14T03:13:28.280Z,-0.90
2023-03-14T03:15:30.484Z,-0.90
2023-03-14T03:17:32.361Z,-0.90
2023-03-14T03:19:35.229Z,-0.90
2023-03-14T03:21:37.102Z,-0.90
2023-03-14T03:23:39.474Z,-1.00
2023-03-14T03:25:41.367Z,-1.00
2023-03-14T03:27:43.131Z,-0.90
2023-03-14T03:29:45.022Z,-0.90
2023-03-14T03:31:46.795Z,-0.90
2023-03-14T03:33:48.684Z,-0.90
2023-03-14T03:35:51.030Z,-1.00
2023-03-14T03:37:52.947Z,-0.90
2023-03-14T03:39:54.725Z,-0.90
2023-03-14T03:41:56.501Z,-1.00
2023-03-14T03:43:58.361Z,-1.00
2023-03-14T03:46:04.537Z,-1.00
2023-03-14T03:48:06.801Z,-1.00
2023-03-14T03:50:09.196Z,-1.00
2023-03-14T03:52:11.188Z,-1.00
2023-03-14T03:54:12.920Z,-1.00
2023-03-14T03:56:14.796Z,-0.90
2023-03-14T03:58:16.722Z,-1.00
2023-03-14T04:00:18.594Z,-1.00
2023-03-14T04:02:20.497Z,-1.00
2023-03-14T04:04:22.672Z,-1.00
2023-03-14T04:06:24.911Z,-1.00
2023-03-14T04:08:26.942Z,-1.00
2023-03-14T04:10:28.858Z,-1.00
2023-03-14T04:12:30.687Z,-1.00
2023-03-14T04:14:32.623Z,-0.90
2023-03-14T04:16:34.486Z,-0.90
2023-03-14T04:18:36.331Z,-0.90
2023-03-14T04:20:38.147Z,-0.90
2023-03-14T04:22:41.161Z,-0.90
2023-03-14T04:24:44.088Z,-0.80
2023-03-14T04:26:45.984Z,-0.70
2023-03-14T04:28:47.764Z,-0.60
2023-03-14T04:30:49.619Z,-0.60
2023-03-14T04:32:51.416Z,-0.50
2023-03-14T04:34:53.338Z,-0.50
2023-03-14T04:36:55.179Z,-0.40
2023-03-14T04:38:57.057Z,-0.40
2023-03-14T04:41:00.274Z,-0.40
2023-03-14T04:43:02.222Z,-0.30
2023-03-14T04:45:04.147Z,-0.30
2023-03-14T04:47:06.116Z,-0.20
2023-03-14T04:49:07.901Z,-0.20
2023-03-14T04:51:11.060Z,-0.10
2023-03-14T04:53:12.997Z,-0.10
2023-03-14T04:55:14.851Z,0.00
2023-03-14T04:57:16.758Z,0.00
2023-03-14T04:59:18.564Z,0.10
2023-03-14T05:01:20.509Z,0.10
2023-03-14T05:03:22.824Z,0.10
2023-03-14T05:05:25.187Z,0.20
2023-03-14T05:07:27.230Z,0.20
2023-03-14T05:09:29.016Z,0.40
2023-03-14T05:11:30.991Z,0.40
2023-03-14T05:13:32.730Z,0.40
2023-03-14T05:15:34.607Z,0.50
2023-03-14T05:17:36.813Z,0.50
2023-03-14T05:19:38.677Z,0.60
2023-03-14T05:21:40.522Z,0.60
2023-03-14T05:23:42.415Z,0.70
2023-03-14T05:25:45.511Z,0.90
2023-03-14T05:27:47.456Z,1.00
2023-03-14T05:29:49.568Z,1.00
2023-03-14T05:31:51.546Z,1.00
2023-03-14T05:33:53.301Z,1.10
2023-03-14T05:35:55.222Z,1.40
2023-03-14T05:37:57.019Z,1.30
2023-03-14T05:39:58.875Z,1.30
2023-03-14T05:42:00.785Z,1.30
2023-03-14T05:44:02.862Z,1.50
2023-03-14T05:46:04.954Z,1.50
2023-03-14T05:48:06.958Z,1.50
2023-03-14T05:50:08.960Z,1.60
2023-03-14T05:52:10.906Z,1.70
2023-03-14T05:54:12.686Z,1.80
2023-03-14T05:56:14.569Z,1.90
2023-03-14T05:58:16.413Z,2.00
2023-03-14T06:00:18.858Z,2.00
2023-03-14T06:02:21.854Z,2.10
2023-03-14T06:04:23.731Z,2.20
2023-03-14T06:06:25.630Z,2.20
2023-03-14T06:08:27.794Z,2.30
2023-03-14T06:10:29.688Z,2.40
2023-03-14T06:12:31.577Z,2.60
2023-03-14T06:14:33.533Z,2.60
2023-03-14T06:16:35.407Z,2.70
2023-03-14T06:18:37.366Z,2.70
2023-03-14T06:20:40.292Z,2.80
2023-03-14T06:22:43.087Z,2.90
2023-03-14T06:24:45.005Z,3.00
2023-03-14T06:26:46.903Z,3.10
2023-03-14T06:28:48.771Z,3.20
2023-03-14T06:30:50.630Z,3.20
2023-03-14T06:32:52.529Z,3.20
2023-03-14T06:34:54.362Z,3.20
2023-03-14T06:36:56.197Z,3.40
2023-03-14T06:38:58.044Z,3.50
2023-03-14T06:41:09.362Z,3.50
2023-03-14T06:43:11.610Z,3.40
2023-03-14T06:45:14.321Z,3.50
2023-03-14T06:47:16.179Z,3.60
2023-03-14T06:49:18.113Z,3.60
2023-03-14T06:51:20.051Z,3.60
2023-03-14T06:53:21.968Z,3.70
2023-03-14T06:55:23.893Z,3.70
2023-03-14T06:57:25.816Z,3.90
2023-03-14T06:59:27.647Z,3.90
2023-03-14T07:01:31.488Z,4.00
2023-03-14T07:03:33.559Z,4.10
2023-03-14T07:05:35.314Z,4.20
2023-03-14T07:07:37.785Z,4.40
2023-03-14T07:09:39.641Z,4.50
2023-03-14T07:11:41.493Z,4.50
2023-03-14T07:13:43.447Z,4.60
2023-03-14T07:15:46.434Z,4.60
2023-03-14T07:17:49.422Z,4.60
2023-03-14T07:19:51.548Z,4.70
2023-03-14T07:21:53.454Z,4.80
2023-03-14T07:23:55.533Z,4.80
2023-03-14T07:25:57.527Z,4.80
2023-03-14T07:27:59.351Z,5.00
2023-03-14T07:30:01.197Z,5.10
2023-03-14T07:32:04.084Z,5.20
2023-03-14T07:34:05.942Z,5.40
2023-03-14T07:36:08.420Z,5.60
2023-03-14T07:38:10.306Z,5.50
2023-03-14T07:40:15.912Z,5.50
2023-03-14T07:42:17.900Z,5.60
2023-03-14T07:44:19.746Z,5.70
2023-03-14T07:46:21.616Z,5.70
2023-03-14T07:48:25.865Z,5.70
2023-03-14T07:50:28.094Z,5.80
2023-03-14T07:52:30.055Z,6.00
2023-03-14T07:54:31.980Z,6.00
2023-03-14T07:56:33.901Z,6.10
2023-03-14T07:58:35.806Z,6.20
2023-03-14T08:00:37.719Z,6.30
2023-03-14T08:02:39.595Z,6.20
2023-03-14T08:04:41.849Z,6.40
2023-03-14T08:06:43.800Z,6.50
2023-03-14T08:08:45.630Z,6.60
2023-03-14T08:10:47.643Z,6.60
2023-03-14T08:12:52.682Z,6.60
2023-03-14T08:14:54.625Z,6.70
2023-03-14T08:16:56.469Z,6.90
2023-03-14T08:18:58.555Z,6.90
2023-03-14T08:21:00.404Z,7.00
2023-03-14T08:23:02.896Z,7.10
2023-03-14T08:25:05.418Z,7.20
2023-03-14T08:27:08.824Z,7.20
2023-03-14T08:29:13.902Z,7.00
2023-03-14T08:31:16.019Z,7.30
2023-03-14T08:33:17.830Z,7.40
2023-03-14T08:35:20.153Z,7.40
2023-03-14T08:37:26.583Z,7.50
2023-03-14T08:39:29.015Z,7.40
2023-03-14T08:41:31.074Z,7.40
2023-03-14T08:43:33.025Z,7.50
2023-03-14T08:45:34.895Z,7.70
2023-03-14T08:47:36.957Z,7.80
2023-03-14T08:49:38.738Z,7.80
2023-03-14T08:51:40.572Z,7.80
2023-03-14T08:53:42.990Z,8.00
2023-03-14T08:55:44.951Z,8.00
2023-03-14T08:57:47.416Z,8.10
2023-03-14T08:59:49.239Z,8.30
2023-03-14T09:01:51.679Z,8.50
2023-03-14T09:03:53.676Z,8.60
2023-03-14T09:05:55.534Z,8.40
2023-03-14T09:07:57.504Z,8.50
2023-03-14T09:09:59.464Z,8.70
2023-03-14T09:12:02.288Z,8.70
2023-03-14T09:14:04.227Z,8.60
2023-03-14T09:16:06.820Z,8.60
2023-03-14T09:18:08.702Z,8.70
2023-03-14T09:20:11.594Z,8.80
2023-03-14T09:22:13.441Z,8.90
2023-03-14T09:24:15.562Z,8.90
2023-03-14T09:26:17.302Z,9.00
2023-03-14T09:28:19.195Z,9.10
2023-03-14T09:30:21.094Z,9.30
2023-03-14T09:32:23.016Z,9.10
2023-03-14T09:34:24.896Z,9.30
2023-03-14T09:36:26.808Z,9.60
2023-03-14T09:38:28.866Z,9.70
2023-03-14T09:40:32.877Z,9.50
2023-03-14T09:42:37.767Z,9.50
2023-03-14T09:44:51.742Z,9.60
2023-03-14T09:46:58.461Z,9.70
2023-03-14T09:49:00.696Z,9.70
2023-03-14T09:51:12.841Z,9.90
2023-03-14T09:53:18.919Z,10.10
2023-03-14T09:55:23.321Z,10.20
2023-03-14T09:57:26.560Z,10.30
2023-03-14T09:59:30.703Z,10.20
2023-03-14T10:01:34.407Z,10.10
2023-03-14T10:03:37.141Z,10.20
2023-03-14T10:05:40.284Z,10.20
2023-03-14T10:07:42.218Z,10.30
2023-03-14T10:09:46.060Z,10.50
2023-03-14T10:11:47.960Z,10.60
2023-03-14T10:14:04.320Z,10.60
2023-03-14T10:16:07.441Z,10.60
2023-03-14T10:18:13.854Z,10.60
2023-03-14T10:20:37.772Z,10.80
2023-03-14T10:22:39.683Z,10.80
2023-03-14T10:24:50.768Z,10.90
2023-03-14T10:26:59.224Z,11.00
2023-03-14T10:29:19.296Z,11.20
2023-03-14T10:31:27.128Z,11.10
2023-03-14T10:33:31.841Z,11.40
2023-03-14T10:35:36.053Z,11.50
2023-03-14T10:37:51.388Z,11.40
2023-03-14T10:40:06.602Z,11.40
2023-03-14T10:42:31.056Z,11.60
2023-03-14T10:44:35.153Z,11.40
2023-03-14T10:46:37.170Z,11.40
2023-03-14T10:48:41.997Z,11.40
2023-03-14T10:50:55.378Z,11.60
2023-03-14T10:53:03.020Z,11.60
2023-03-14T10:55:12.218Z,11.40
2023-03-14T10:57:14.076Z,11.30
2023-03-14T10:59:16.661Z,11.30
2023-03-14T11:01:47.630Z,11.40
2023-03-14T11:04:03.013Z,11.60
2023-03-14T11:06:19.380Z,11.60
2023-03-14T11:08:43.199Z,11.90
2023-03-14T11:10:49.664Z,11.60
2023-03-14T11:13:32.630Z,11.50
2023-03-14T11:15:39.371Z,11.30
2023-03-14T11:18:08.457Z,11.30
2023-03-14T11:20:16.436Z,11.60
2023-03-14T11:22:33.042Z,11.40
2023-03-14T11:24:53.255Z,11.70
2023-03-14T11:26:58.952Z,11.80
2023-03-14T11:29:20.909Z,12.00
2023-03-14T11:31:29.888Z,12.00
2023-03-14T11:33:57.325Z,12.10
2023-03-14T11:36:03.040Z,12.20
2023-03-14T11:38:19.313Z,12.40
2023-03-14T11:40:24.916Z,12.20
2023-03-14T11:42:29.350Z,12.30
2023-03-14T11:44:39.194Z,12.10
2023-03-14T11:46:47.079Z,12.10
2023-03-14T11:49:20.914Z,12.00
2023-03-14T11:51:28.145Z,12.20
2023-03-14T11:53:52.118Z,12.40
2023-03-14T11:55:55.779Z,12.20
2023-03-14T11:58:28.049Z,12.20
2023-03-14T12:00:31.473Z,12.20
2023-03-14T12:02:42.737Z,11.90
2023-03-14T12:28:20.359Z,12.30
2023-03-14T12:30:30.685Z,12.40
2023-03-14T12:32:33.314Z,12.20
2023-03-14T12:34:43.023Z,12.20
2023-03-14T12:36:51.100Z,12.30
2023-03-14T12:39:14.727Z,12.30
2023-03-14T12:41:45.672Z,12.40
2023-03-14T12:43:48.086Z,12.40
2023-03-14T12:46:22.045Z,12.50
2023-03-14T12:48:25.964Z,12.40
2023-03-14T12:50:36.729Z,12.40
2023-03-14T12:52:56.447Z,12.50
2023-03-14T12:55:04.130Z,12.40
2023-03-14T12:57:09.947Z,12.40
2023-03-14T12:59:36.423Z,12.30
2023-03-14T13:01:46.049Z,12.40
2023-03-14T13:03:58.963Z,12.40
2023-03-14T13:06:02.942Z,12.40
2023-03-14T13:08:06.850Z,12.40
2023-03-14T13:12:12.602Z,12.30
2023-03-14T13:14:15.268Z,12.20
2023-03-14T13:16:20.781Z,12.10
2023-03-14T13:19:05.656Z,12.20
2023-03-14T13:21:18.789Z,12.20
2023-03-14T13:23:26.202Z,12.20
2023-03-14T13:25:35.446Z,12.20
2023-03-14T13:27:37.797Z,12.20
2023-03-14T13:29:39.650Z,12.20
2023-03-14T13:31:46.678Z,12.20
2023-03-14T13:33:57.215Z,12.20
2023-03-14T13:36:04.853Z,12.20
2023-03-14T13:38:15.906Z,12.20
2023-03-14T13:40:26.575Z,12.20
2023-03-14T13:42:30.473Z,12.00
2023-03-14T13:44:40.722Z,12.00
2023-03-14T13:46:42.729Z,12.00
2023-03-14T13:48:49.464Z,12.10
2023-03-14T13:50:57.499Z,12.00
2023-03-14T13:52:59.452Z,11.90
2023-03-14T13:55:04.315Z,12.00
2023-03-14T13:57:07.092Z,11.90
2023-03-14T13:59:25.263Z,11.80
2023-03-14T14:01:35.185Z,11.70
2023-03-14T14:03:40.871Z,11.70
2023-03-14T14:05:46.104Z,11.80
2023-03-14T14:07:49.841Z,11.90
2023-03-14T14:09:54.701Z,11.70
2023-03-14T14:12:17.730Z,11.70
2023-03-14T14:14:50.361Z,11.70
2023-03-14T14:16:53.670Z,11.80
2023-03-14T14:18:56.951Z,13.00
2023-03-14T14:20:59.393Z,14.00
2023-03-14T14:23:12.334Z,15.00
2023-03-14T14:25:15.919Z,15.50
2023-03-14T14:27:36.122Z,15.30
2023-03-14T14:29:38.286Z,15.10
2023-03-14T14:31:40.189Z,15.60
2023-03-14T14:33:46.109Z,15.80
2023-03-14T14:36:06.770Z,15.90
2023-03-14T14:38:17.252Z,15.70
2023-03-14T14:40:25.891Z,15.10
2023-03-14T14:42:31.326Z,14.70
2023-03-14T14:44:37.431Z,14.60
2023-03-14T14:46:39.748Z,14.30
2023-03-14T14:48:41.738Z,14.60
2023-03-14T14:50:50.661Z,14.60
2023-03-14T14:52:58.703Z,14.30
2023-03-14T14:55:01.988Z,13.90
2023-03-14T14:57:06.746Z,13.60
2023-03-14T14:59:29.577Z,13.20
2023-03-14T15:01:38.012Z,13.30
2023-03-14T15:03:42.749Z,13.30
2023-03-14T15:05:44.674Z,13.80
2023-03-14T15:07:47.087Z,14.40
2023-03-14T15:09:48.983Z,14.40
2023-03-14T15:11:51.388Z,13.50
2023-03-14T15:13:54.006Z,12.00
2023-03-14T15:15:57.071Z,11.00
2023-03-14T15:17:59.171Z,10.50
2023-03-14T15:20:01.028Z,10.10
2023-03-14T15:22:02.969Z,10.00
2023-03-14T15:24:06.715Z,9.90
2023-03-14T15:26:17.491Z,9.90
2023-03-14T15:28:22.527Z,9.80
2023-03-14T15:30:24.411Z,9.70
2023-03-14T15:32:28.347Z,9.80
2023-03-14T15:34:30.321Z,9.80
2023-03-14T15:36:34.706Z,9.60
2023-03-14T15:38:36.591Z,9.50
2023-03-14T15:40:39.021Z,9.40
2023-03-14T15:42:42.180Z,9.30
2023-03-14T15:44:44.132Z,9.00
2023-03-14T15:46:46.076Z,8.70
2023-03-14T15:48:48.659Z,8.50
2023-03-14T15:50:50.750Z,8.30
2023-03-14T15:52:53.141Z,8.20
2023-03-14T15:54:55.047Z,8.10
2023-03-14T15:56:58.047Z,8.00
2023-03-14T15:59:00.136Z,8.00
2023-03-14T16:01:03.001Z,7.90
2023-03-14T16:03:05.309Z,7.80
2023-03-14T16:05:07.652Z,7.80
2023-03-14T16:07:09.611Z,7.70
2023-03-14T16:09:12.636Z,7.60
2023-03-14T16:11:16.146Z,7.50
2023-03-14T16:13:20.632Z,7.40
2023-03-14T16:15:22.553Z,7.40
2023-03-14T16:17:24.784Z,7.30
2023-03-14T16:19:30.421Z,7.20
2023-03-14T16:21:33.797Z,7.30
2023-03-14T16:23:36.723Z,7.30
2023-03-14T16:25:38.622Z,7.20
2023-03-14T16:27:40.831Z,7.10
2023-03-14T16:29:43.664Z,7.00
2023-03-14T16:31:45.710Z,6.90
2023-03-14T16:33:47.736Z,6.80
2023-03-14T16:35:57.416Z,6.80
2023-03-14T16:38:01.696Z,6.70
2023-03-14T16:40:12.957Z,6.70
2023-03-14T16:42:16.442Z,6.70
2023-03-14T16:44:18.365Z,6.60
2023-03-14T16:46:22.527Z,6.60
2023-03-14T16:48:24.975Z,6.60
2023-03-14T16:50:26.813Z,6.60
2023-03-14T16:52:28.765Z,6.50
2023-03-14T16:54:30.803Z,6.50
2023-03-14T16:56:32.734Z,6.30
2023-03-14T16:58:35.210Z,6.20
2023-03-14T17:00:37.814Z,6.20
2023-03-14T17:02:39.779Z,6.10
2023-03-14T17:04:42.064Z,6.00
2023-03-14T17:06:45.601Z,5.90
2023-03-14T17:08:47.559Z,5.90
2023-03-14T17:10:49.646Z,6.10
2023-03-14T17:12:51.552Z,6.00
2023-03-14T17:14:53.934Z,5.90
2023-03-14T17:16:56.045Z,5.90
2023-03-14T17:18:58.310Z,5.90
2023-03-14T17:21:01.110Z,5.70
2023-03-14T17:23:03.169Z,5.60
2023-03-14T17:25:05.243Z,5.40
2023-03-14T17:27:07.312Z,5.40
2023-03-14T17:29:09.217Z,5.30
2023-03-14T17:31:18.453Z,5.20
2023-03-14T17:33:20.773Z,5.30
2023-03-14T17:35:22.915Z,5.20
2023-03-14T17:37:24.808Z,5.10
2023-03-14T17:39:27.040Z,5.10
2023-03-14T17:41:30.114Z,5.10
2023-03-14T17:43:33.938Z,5.00
2023-03-14T17:45:35.965Z,5.00
2023-03-14T17:47:37.872Z,4.90
2023-03-14T17:49:40.618Z,4.80
2023-03-14T17:51:42.488Z,4.80
2023-03-14T17:53:44.455Z,4.70
2023-03-14T17:55:49.397Z,4.60
2023-03-14T17:57:51.374Z,4.50
2023-03-14T17:59:53.804Z,4.40
2023-03-14T18:01:56.152Z,4.50
2023-03-14T18:03:59.003Z,4.40
2023-03-14T18:06:05.968Z,4.40
2023-03-14T18:08:12.625Z,4.40
2023-03-14T18:10:14.791Z,4.30
2023-03-14T18:12:16.759Z,4.20
2023-03-14T18:14:18.730Z,4.20
2023-03-14T18:16:21.801Z,4.10
2023-03-14T18:18:23.809Z,4.00
2023-03-14T18:20:25.826Z,3.90
2023-03-14T18:22:27.710Z,3.90
2023-03-14T18:24:29.645Z,3.80
2023-03-14T18:26:31.652Z,3.90
2023-03-14T18:28:33.471Z,3.80
2023-03-14T18:30:35.454Z,3.80
2023-03-14T18:32:37.325Z,3.70
2023-03-14T18:34:39.377Z,3.60
2023-03-14T18:36:41.262Z,3.50
2023-03-14T18:38:43.596Z,3.60
2023-03-14T18:40:45.933Z,3.60
2023-03-14T18:42:47.867Z,3.60
2023-03-14T18:44:49.866Z,3.50
2023-03-14T18:46:51.851Z,3.40
2023-03-14T18:48:57.978Z,3.50
2023-03-14T18:51:01.863Z,3.50
2023-03-14T18:53:03.728Z,3.50
2023-03-14T18:55:06.156Z,3.40
2023-03-14T18:57:08.108Z,3.30
2023-03-14T18:59:10.677Z,3.30
2023-03-14T19:01:13.132Z,3.30
2023-03-14T19:03:15.688Z,3.20
2023-03-14T19:05:17.748Z,3.20
2023-03-14T19:07:19.951Z,3.20
2023-03-14T19:09:21.962Z,3.20
2023-03-14T19:11:23.893Z,3.20
2023-03-14T19:13:25.895Z,3.10
2023-03-14T19:15:27.859Z,3.10
2023-03-14T19:17:29.865Z,3.00
2023-03-14T19:19:31.785Z,3.10
2023-03-14T19:21:35.414Z,3.00
2023-03-14T19:23:39.436Z,3.10
2023-03-14T19:25:43.681Z,3.00
2023-03-14T19:27:45.673Z,3.00
2023-03-14T19:29:47.585Z,2.90
2023-03-14T19:31:51.024Z,2.90
2023-03-14T19:33:53.634Z,3.00
2023-03-14T19:35:55.560Z,2.90
2023-03-14T19:37:57.606Z,2.80
2023-03-14T19:39:59.467Z,2.80
2023-03-14T19:42:01.420Z,2.80
2023-03-14T19:44:03.533Z,2.70
2023-03-14T19:46:05.981Z,2.60
2023-03-14T19:48:07.861Z,2.70
2023-03-14T19:50:10.696Z,2.60
2023-03-14T19:52:12.780Z,2.60
2023-03-14T19:54:14.916Z,2.50
2023-03-14T19:56:16.790Z,2.50
2023-03-14T19:58:18.673Z,2.50
2023-03-14T20:00:20.915Z,2.40
2023-03-14T20:02:22.812Z,2.50
2023-03-14T20:04:25.989Z,2.40
2023-03-14T20:06:28.931Z,2.40
2023-03-14T20:08:30.779Z,2.50
2023-03-14T20:10:34.350Z,2.40
2023-03-14T20:12:36.350Z,2.40
2023-03-14T20:14:38.404Z,2.40
2023-03-14T20:16:40.299Z,2.40
2023-03-14T20:18:42.072Z,2.40
2023-03-14T20:20:43.885Z,2.30
2023-03-14T20:22:46.265Z,2.20
2023-03-14T20:24:48.213Z,2.10
2023-03-14T20:26:50.271Z,2.10
2023-03-14T20:28:52.059Z,2.10
2023-03-14T20:30:54.316Z,2.10
2023-03-14T20:32:56.236Z,2.10
2023-03-14T20:34:58.035Z,2.00
2023-03-14T20:37:02.755Z,2.00
2023-03-14T20:39:05.496Z,2.00
2023-03-14T20:41:08.171Z,1.90
2023-03-14T20:43:09.990Z,1.90
2023-03-14T20:45:11.933Z,1.90
2023-03-14T20:47:13.726Z,1.80
2023-03-14T20:49:15.521Z,1.80
2023-03-14T20:51:17.701Z,1.80
2023-03-14T20:53:20.220Z,1.80
2023-03-14T20:55:22.340Z,1.80
2023-03-14T20:57:24.315Z,1.70
2023-03-14T20:59:28.144Z,1.70
2023-03-14T21:01:29.929Z,1.80
2023-03-14T21:03:32.707Z,1.70
2023-03-14T21:05:34.673Z,1.80
2023-03-14T21:07:41.523Z,1.80
2023-03-14T21:09:43.417Z,1.80
2023-03-14T21:11:47.439Z,1.90
2023-03-14T21:13:49.198Z,1.90
2023-03-14T21:15:51.089Z,1.80
2023-03-14T21:17:53.856Z,1.80
2023-03-14T21:19:58.437Z,1.80
2023-03-14T21:22:04.072Z,1.80
2023-03-14T21:24:08.515Z,1.80
2023-03-14T21:26:10.282Z,1.70
2023-03-14T21:28:12.619Z,1.70
2023-03-14T21:30:15.002Z,1.70
2023-03-14T21:32:17.474Z,1.60
2023-03-14T21:34:26.808Z,1.70
2023-03-14T21:36:28.598Z,1.70
2023-03-14T21:38:30.411Z,1.80
2023-03-14T21:40:32.713Z,1.80
2023-03-14T21:42:34.937Z,1.70
2023-03-14T21:44:41.335Z,1.80
2023-03-14T21:46:46.048Z,1.70
2023-03-14T21:48:47.949Z,1.70
2023-03-14T21:50:49.696Z,1.70
2023-03-14T21:52:52.111Z,1.70
2023-03-14T21:54:54.306Z,1.70
2023-03-14T21:56:59.701Z,1.70
2023-03-14T21:59:01.469Z,1.70
2023-03-14T22:01:06.645Z,1.60
2023-03-14T22:03:13.258Z,1.60
2023-03-14T22:05:16.467Z,1.60
2023-03-14T22:07:18.890Z,1.60
2023-03-14T22:09:22.805Z,1.60
2023-03-14T22:11:25.008Z,1.50
2023-03-14T22:13:26.830Z,1.60
2023-03-14T22:15:28.583Z,1.50
2023-03-14T22:17:30.539Z,1.50
2023-03-14T22:19:32.530Z,1.50
2023-03-14T22:21:34.254Z,1.50
2023-03-14T22:23:35.954Z,1.50
2023-03-14T22:25:44.340Z,1.50
2023-03-14T22:27:46.222Z,1.50
2023-03-14T22:29:48.033Z,1.50
2023-03-14T22:31:50.097Z,1.50
2023-03-14T22:33:51.984Z,1.50
2023-03-14T22:35:54.017Z,1.50
2023-03-14T22:37:55.803Z,1.40
2023-03-14T22:39:57.647Z,1.40
2023-03-14T22:42:00.241Z,1.40
2023-03-14T22:44:02.061Z,1.40
2023-03-14T22:46:05.460Z,1.40
2023-03-14T22:48:07.245Z,1.40
2023-03-14T22:50:09.445Z,1.30
2023-03-14T22:52:11.437Z,1.30
2023-03-14T22:54:13.272Z,1.30
2023-03-14T22:56:15.020Z,1.30
2023-03-14T22:58:16.794Z,1.30
2023-03-14T23:00:18.733Z,1.30
2023-03-14T23:02:20.581Z,1.30
2023-03-14T23:04:22.301Z,1.40
2023-03-14T23:06:24.028Z,1.30
2023-03-14T23:08:26.289Z,1.20
2023-03-14T23:10:27.987Z,1.30
2023-03-14T23:12:29.700Z,1.30
2023-03-14T23:14:31.441Z,1.30
2023-03-14T23:16:39.966Z,1.30
2023-03-14T23:18:42.604Z,1.30
2023-03-14T23:20:45.487Z,1.30
2023-03-14T23:22:48.796Z,1.30
2023-03-14T23:24:50.565Z,1.20
2023-03-14T23:26:52.390Z,1.30
2023-03-14T23:28:56.840Z,1.20
2023-03-14T23:30:59.007Z,1.30
2023-03-14T23:33:00.812Z,1.30
2023-03-14T23:35:03.002Z,1.30
2023-03-14T23:37:05.080Z,1.30
2023-03-14T23:39:07.722Z,1.40
2023-03-14T23:41:09.989Z,1.40
2023-03-14T23:43:11.875Z,1.40
2023-03-14T23:45:14.238Z,1.30
2023-03-14T23:47:16.079Z,1.30
2023-03-14T23:49:17.813Z,1.30
2023-03-14T23:51:19.663Z,1.30
2023-03-14T23:53:21.371Z,1.30
2023-03-14T23:55:23.123Z,1.20
2023-03-14T23:57:24.860Z,1.30
2023-03-14T23:59:26.664Z,1.20
